sensor_id;sensor_type;location;lat;lon;timestamp;P1;durP1;ratioP1;P2;durP2;ratioP2
10667;SDS011;5382;42.136;24.796;2023-07-28T00:01:41;2.20;;;2.00;;
10667;SDS011;5382;42.136;24.796;2023-07-28T00:04:08;2.13;;;1.92;;
10667;SDS011;5382;42.136;24.796;2023-07-28T00:06:35;2.22;;;2.03;;
10667;SDS011;5382;42.136;24.796;2023-07-28T00:09:02;2.05;;;1.80;;
10667;SDS011;5382;42.136;24.796;2023-07-28T00:11:30;3.22;;;2.30;;
10667;SDS011;5382;42.136;24.796;2023-07-28T00:13:57;2.22;;;1.85;;
10667;SDS011;5382;42.136;24.796;2023-07-28T00:16:24;4.35;;;2.20;;
10667;SDS011;5382;42.136;24.796;2023-07-28T00:18:51;2.35;;;2.13;;
10667;SDS011;5382;42.136;24.796;2023-07-28T00:21:17;2.13;;;2.00;;
10667;SDS011;5382;42.136;24.796;2023-07-28T00:23:44;2.20;;;1.70;;
10667;SDS011;5382;42.136;24.796;2023-07-28T00:26:11;2.20;;;1.70;;
10667;SDS011;5382;42.136;24.796;2023-07-28T00:28:39;2.63;;;1.80;;
10667;SDS011;5382;42.136;24.796;2023-07-28T00:31:06;1.80;;;1.67;;
10667;SDS011;5382;42.136;24.796;2023-07-28T00:33:33;4.85;;;2.25;;
10667;SDS011;5382;42.136;24.796;2023-07-28T00:36:00;3.90;;;2.15;;
10667;SDS011;5382;42.136;24.796;2023-07-28T00:38:26;3.05;;;2.03;;
10667;SDS011;5382;42.136;24.796;2023-07-28T00:40:53;2.85;;;2.15;;
10667;SDS011;5382;42.136;24.796;2023-07-28T00:43:20;2.47;;;1.98;;
10667;SDS011;5382;42.136;24.796;2023-07-28T00:45:48;3.38;;;1.90;;
10667;SDS011;5382;42.136;24.796;2023-07-28T00:48:16;2.30;;;2.00;;
10667;SDS011;5382;42.136;24.796;2023-07-28T00:50:45;4.95;;;2.28;;
10667;SDS011;5382;42.136;24.796;2023-07-28T00:53:13;3.90;;;2.22;;
10667;SDS011;5382;42.136;24.796;2023-07-28T00:55:40;2.80;;;2.28;;
10667;SDS011;5382;42.136;24.796;2023-07-28T00:58:08;2.85;;;2.60;;
10667;SDS011;5382;42.136;24.796;2023-07-28T01:00:35;2.72;;;2.50;;
10667;SDS011;5382;42.136;24.796;2023-07-28T01:03:03;2.92;;;2.40;;
10667;SDS011;5382;42.136;24.796;2023-07-28T01:05:32;2.70;;;2.50;;
10667;SDS011;5382;42.136;24.796;2023-07-28T01:08:06;3.47;;;2.20;;
10667;SDS011;5382;42.136;24.796;2023-07-28T01:10:37;2.38;;;2.15;;
10667;SDS011;5382;42.136;24.796;2023-07-28T01:13:05;3.00;;;2.08;;
10667;SDS011;5382;42.136;24.796;2023-07-28T01:15:32;2.45;;;2.08;;
10667;SDS011;5382;42.136;24.796;2023-07-28T01:17:58;2.10;;;1.90;;
10667;SDS011;5382;42.136;24.796;2023-07-28T01:20:29;2.40;;;2.05;;
10667;SDS011;5382;42.136;24.796;2023-07-28T01:23:05;2.30;;;2.10;;
10667;SDS011;5382;42.136;24.796;2023-07-28T01:25:42;2.47;;;2.22;;
10667;SDS011;5382;42.136;24.796;2023-07-28T01:28:16;2.63;;;2.03;;
10667;SDS011;5382;42.136;24.796;2023-07-28T01:30:43;2.30;;;2.10;;
10667;SDS011;5382;42.136;24.796;2023-07-28T01:33:11;2.38;;;2.10;;
10667;SDS011;5382;42.136;24.796;2023-07-28T01:35:38;2.35;;;2.15;;
10667;SDS011;5382;42.136;24.796;2023-07-28T01:38:05;3.60;;;1.90;;
10667;SDS011;5382;42.136;24.796;2023-07-28T01:40:32;2.50;;;2.20;;
10667;SDS011;5382;42.136;24.796;2023-07-28T01:42:59;2.83;;;2.20;;
10667;SDS011;5382;42.136;24.796;2023-07-28T01:45:27;2.40;;;2.20;;
10667;SDS011;5382;42.136;24.796;2023-07-28T01:47:53;3.03;;;2.28;;
10667;SDS011;5382;42.136;24.796;2023-07-28T01:50:20;5.05;;;2.30;;
10667;SDS011;5382;42.136;24.796;2023-07-28T01:52:47;4.38;;;2.40;;
10667;SDS011;5382;42.136;24.796;2023-07-28T01:55:14;3.20;;;2.20;;
10667;SDS011;5382;42.136;24.796;2023-07-28T01:57:49;2.15;;;2.00;;
10667;SDS011;5382;42.136;24.796;2023-07-28T02:00:17;3.10;;;2.05;;
10667;SDS011;5382;42.136;24.796;2023-07-28T02:02:46;2.65;;;2.15;;
10667;SDS011;5382;42.136;24.796;2023-07-28T02:05:13;2.92;;;2.67;;
10667;SDS011;5382;42.136;24.796;2023-07-28T02:07:40;2.95;;;2.30;;
10667;SDS011;5382;42.136;24.796;2023-07-28T02:10:07;3.28;;;2.05;;
10667;SDS011;5382;42.136;24.796;2023-07-28T02:12:34;2.70;;;2.50;;
10667;SDS011;5382;42.136;24.796;2023-07-28T02:15:01;4.28;;;2.10;;
10667;SDS011;5382;42.136;24.796;2023-07-28T02:17:28;4.00;;;2.47;;
10667;SDS011;5382;42.136;24.796;2023-07-28T02:19:56;4.55;;;2.17;;
10667;SDS011;5382;42.136;24.796;2023-07-28T02:22:23;2.50;;;2.30;;
10667;SDS011;5382;42.136;24.796;2023-07-28T02:24:50;3.13;;;2.50;;
10667;SDS011;5382;42.136;24.796;2023-07-28T02:27:16;2.67;;;2.40;;
10667;SDS011;5382;42.136;24.796;2023-07-28T02:29:43;3.00;;;2.40;;
10667;SDS011;5382;42.136;24.796;2023-07-28T02:32:10;2.10;;;1.92;;
10667;SDS011;5382;42.136;24.796;2023-07-28T02:34:37;2.60;;;2.40;;
10667;SDS011;5382;42.136;24.796;2023-07-28T02:37:05;4.80;;;2.60;;
10667;SDS011;5382;42.136;24.796;2023-07-28T02:39:32;4.53;;;2.60;;
10667;SDS011;5382;42.136;24.796;2023-07-28T02:41:59;5.22;;;2.85;;
10667;SDS011;5382;42.136;24.796;2023-07-28T02:44:26;2.63;;;2.22;;
10667;SDS011;5382;42.136;24.796;2023-07-28T02:46:53;3.95;;;2.42;;
10667;SDS011;5382;42.136;24.796;2023-07-28T02:49:19;5.72;;;2.90;;
10667;SDS011;5382;42.136;24.796;2023-07-28T02:51:46;2.58;;;2.38;;
10667;SDS011;5382;42.136;24.796;2023-07-28T02:54:14;4.60;;;2.70;;
10667;SDS011;5382;42.136;24.796;2023-07-28T02:56:41;3.08;;;2.78;;
10667;SDS011;5382;42.136;24.796;2023-07-28T02:59:08;2.80;;;2.60;;
10667;SDS011;5382;42.136;24.796;2023-07-28T03:01:35;3.67;;;2.83;;
10667;SDS011;5382;42.136;24.796;2023-07-28T03:04:01;3.92;;;2.97;;
10667;SDS011;5382;42.136;24.796;2023-07-28T03:06:29;3.40;;;2.50;;
10667;SDS011;5382;42.136;24.796;2023-07-28T03:08:55;4.50;;;2.70;;
10667;SDS011;5382;42.136;24.796;2023-07-28T03:11:25;3.10;;;2.70;;
10667;SDS011;5382;42.136;24.796;2023-07-28T03:13:52;3.30;;;2.97;;
10667;SDS011;5382;42.136;24.796;2023-07-28T03:16:19;3.50;;;2.40;;
10667;SDS011;5382;42.136;24.796;2023-07-28T03:18:46;3.17;;;2.70;;
10667;SDS011;5382;42.136;24.796;2023-07-28T03:21:13;4.47;;;2.80;;
10667;SDS011;5382;42.136;24.796;2023-07-28T03:23:40;5.85;;;3.05;;
10667;SDS011;5382;42.136;24.796;2023-07-28T03:26:06;2.90;;;2.40;;
10667;SDS011;5382;42.136;24.796;2023-07-28T03:28:35;2.80;;;2.60;;
10667;SDS011;5382;42.136;24.796;2023-07-28T03:31:01;3.80;;;3.35;;
10667;SDS011;5382;42.136;24.796;2023-07-28T03:33:28;3.42;;;3.13;;
10667;SDS011;5382;42.136;24.796;2023-07-28T03:35:55;4.57;;;3.53;;
10667;SDS011;5382;42.136;24.796;2023-07-28T03:38:22;3.38;;;3.03;;
10667;SDS011;5382;42.136;24.796;2023-07-28T03:40:49;7.15;;;3.78;;
10667;SDS011;5382;42.136;24.796;2023-07-28T03:43:16;4.55;;;3.20;;
10667;SDS011;5382;42.136;24.796;2023-07-28T03:45:44;3.95;;;3.38;;
10667;SDS011;5382;42.136;24.796;2023-07-28T03:48:11;5.80;;;3.17;;
10667;SDS011;5382;42.136;24.796;2023-07-28T03:50:38;5.03;;;3.70;;
10667;SDS011;5382;42.136;24.796;2023-07-28T03:53:04;6.63;;;3.67;;
10667;SDS011;5382;42.136;24.796;2023-07-28T03:55:31;3.90;;;3.47;;
10667;SDS011;5382;42.136;24.796;2023-07-28T03:57:58;7.35;;;4.18;;
10667;SDS011;5382;42.136;24.796;2023-07-28T04:00:25;6.10;;;4.20;;
10667;SDS011;5382;42.136;24.796;2023-07-28T04:02:53;8.27;;;3.70;;
10667;SDS011;5382;42.136;24.796;2023-07-28T04:05:19;8.43;;;4.47;;
10667;SDS011;5382;42.136;24.796;2023-07-28T04:07:46;7.13;;;3.95;;
10667;SDS011;5382;42.136;24.796;2023-07-28T04:10:13;4.95;;;3.78;;
10667;SDS011;5382;42.136;24.796;2023-07-28T04:12:40;9.10;;;4.57;;
10667;SDS011;5382;42.136;24.796;2023-07-28T04:15:07;5.97;;;4.25;;
10667;SDS011;5382;42.136;24.796;2023-07-28T04:17:34;8.93;;;4.18;;
10667;SDS011;5382;42.136;24.796;2023-07-28T04:20:03;11.02;;;4.40;;
10667;SDS011;5382;42.136;24.796;2023-07-28T04:22:30;7.63;;;4.88;;
10667;SDS011;5382;42.136;24.796;2023-07-28T04:24:57;8.88;;;4.90;;
10667;SDS011;5382;42.136;24.796;2023-07-28T04:27:23;18.13;;;5.68;;
10667;SDS011;5382;42.136;24.796;2023-07-28T04:29:50;10.27;;;5.53;;
10667;SDS011;5382;42.136;24.796;2023-07-28T04:32:17;9.45;;;5.88;;
10667;SDS011;5382;42.136;24.796;2023-07-28T04:34:43;9.13;;;4.95;;
10667;SDS011;5382;42.136;24.796;2023-07-28T04:37:12;5.38;;;4.88;;
10667;SDS011;5382;42.136;24.796;2023-07-28T04:39:38;12.35;;;5.68;;
10667;SDS011;5382;42.136;24.796;2023-07-28T04:42:05;6.22;;;4.72;;
10667;SDS011;5382;42.136;24.796;2023-07-28T04:44:32;6.97;;;5.13;;
10667;SDS011;5382;42.136;24.796;2023-07-28T04:46:59;14.70;;;5.30;;
10667;SDS011;5382;42.136;24.796;2023-07-28T04:49:26;5.65;;;4.95;;
10667;SDS011;5382;42.136;24.796;2023-07-28T04:51:53;11.77;;;5.55;;
10667;SDS011;5382;42.136;24.796;2023-07-28T04:54:21;7.55;;;5.25;;
10667;SDS011;5382;42.136;24.796;2023-07-28T04:56:48;11.82;;;5.38;;
10667;SDS011;5382;42.136;24.796;2023-07-28T04:59:18;13.30;;;5.68;;
10667;SDS011;5382;42.136;24.796;2023-07-28T05:01:44;7.85;;;6.53;;
10667;SDS011;5382;42.136;24.796;2023-07-28T05:04:11;11.90;;;6.00;;
10667;SDS011;5382;42.136;24.796;2023-07-28T05:06:38;8.77;;;5.30;;
10667;SDS011;5382;42.136;24.796;2023-07-28T05:09:05;5.95;;;5.30;;
10667;SDS011;5382;42.136;24.796;2023-07-28T05:11:33;6.80;;;5.10;;
10667;SDS011;5382;42.136;24.796;2023-07-28T05:14:00;9.27;;;5.50;;
10667;SDS011;5382;42.136;24.796;2023-07-28T05:16:27;10.77;;;5.70;;
10667;SDS011;5382;42.136;24.796;2023-07-28T05:18:53;13.50;;;5.30;;
10667;SDS011;5382;42.136;24.796;2023-07-28T05:21:20;44.10;;;8.00;;
10667;SDS011;5382;42.136;24.796;2023-07-28T05:23:47;11.75;;;5.38;;
10667;SDS011;5382;42.136;24.796;2023-07-28T05:26:14;10.82;;;4.60;;
10667;SDS011;5382;42.136;24.796;2023-07-28T05:28:42;8.52;;;4.38;;
10667;SDS011;5382;42.136;24.796;2023-07-28T05:31:09;10.25;;;5.00;;
10667;SDS011;5382;42.136;24.796;2023-07-28T05:33:38;11.77;;;4.95;;
10667;SDS011;5382;42.136;24.796;2023-07-28T05:36:05;5.93;;;5.05;;
10667;SDS011;5382;42.136;24.796;2023-07-28T05:38:32;6.85;;;4.38;;
10667;SDS011;5382;42.136;24.796;2023-07-28T05:40:59;8.23;;;4.47;;
10667;SDS011;5382;42.136;24.796;2023-07-28T05:43:28;6.40;;;4.85;;
10667;SDS011;5382;42.136;24.796;2023-07-28T05:45:57;7.80;;;5.20;;
10667;SDS011;5382;42.136;24.796;2023-07-28T05:48:24;7.82;;;5.55;;
10667;SDS011;5382;42.136;24.796;2023-07-28T05:50:51;8.10;;;5.25;;
10667;SDS011;5382;42.136;24.796;2023-07-28T05:53:18;12.77;;;5.30;;
10667;SDS011;5382;42.136;24.796;2023-07-28T05:55:46;5.25;;;4.72;;
10667;SDS011;5382;42.136;24.796;2023-07-28T05:58:12;7.32;;;4.90;;
10667;SDS011;5382;42.136;24.796;2023-07-28T06:00:39;10.23;;;4.78;;
10667;SDS011;5382;42.136;24.796;2023-07-28T06:03:09;9.00;;;4.80;;
10667;SDS011;5382;42.136;24.796;2023-07-28T06:05:37;8.35;;;4.28;;
10667;SDS011;5382;42.136;24.796;2023-07-28T06:08:05;10.35;;;4.18;;
10667;SDS011;5382;42.136;24.796;2023-07-28T06:10:32;7.30;;;4.32;;
10667;SDS011;5382;42.136;24.796;2023-07-28T06:13:00;11.00;;;4.60;;
10667;SDS011;5382;42.136;24.796;2023-07-28T06:15:26;11.15;;;4.90;;
10667;SDS011;5382;42.136;24.796;2023-07-28T06:17:53;8.10;;;5.00;;
10667;SDS011;5382;42.136;24.796;2023-07-28T06:20:21;7.40;;;4.53;;
10667;SDS011;5382;42.136;24.796;2023-07-28T06:22:48;9.48;;;4.63;;
10667;SDS011;5382;42.136;24.796;2023-07-28T06:25:15;7.97;;;4.70;;
10667;SDS011;5382;42.136;24.796;2023-07-28T06:27:42;8.27;;;4.50;;
10667;SDS011;5382;42.136;24.796;2023-07-28T06:30:09;6.07;;;4.03;;
10667;SDS011;5382;42.136;24.796;2023-07-28T06:32:37;6.93;;;4.03;;
10667;SDS011;5382;42.136;24.796;2023-07-28T06:35:04;7.78;;;3.88;;
10667;SDS011;5382;42.136;24.796;2023-07-28T06:37:34;10.52;;;4.55;;
10667;SDS011;5382;42.136;24.796;2023-07-28T06:40:02;10.32;;;4.18;;
10667;SDS011;5382;42.136;24.796;2023-07-28T06:42:30;8.30;;;3.80;;
10667;SDS011;5382;42.136;24.796;2023-07-28T06:44:59;10.82;;;4.38;;
10667;SDS011;5382;42.136;24.796;2023-07-28T06:47:26;9.48;;;4.18;;
10667;SDS011;5382;42.136;24.796;2023-07-28T06:49:53;5.05;;;3.70;;
10667;SDS011;5382;42.136;24.796;2023-07-28T06:52:20;8.02;;;3.88;;
10667;SDS011;5382;42.136;24.796;2023-07-28T06:54:48;6.40;;;3.42;;
10667;SDS011;5382;42.136;24.796;2023-07-28T06:57:15;6.18;;;4.03;;
10667;SDS011;5382;42.136;24.796;2023-07-28T06:59:42;7.70;;;3.97;;
10667;SDS011;5382;42.136;24.796;2023-07-28T07:02:08;5.80;;;3.95;;
10667;SDS011;5382;42.136;24.796;2023-07-28T07:04:35;11.15;;;3.75;;
10667;SDS011;5382;42.136;24.796;2023-07-28T07:07:02;8.20;;;3.80;;
10667;SDS011;5382;42.136;24.796;2023-07-28T07:09:29;7.10;;;3.75;;
10667;SDS011;5382;42.136;24.796;2023-07-28T07:11:57;5.85;;;3.63;;
10667;SDS011;5382;42.136;24.796;2023-07-28T07:14:24;7.75;;;3.42;;
10667;SDS011;5382;42.136;24.796;2023-07-28T07:16:51;9.18;;;3.38;;
10667;SDS011;5382;42.136;24.796;2023-07-28T07:19:18;4.68;;;3.30;;
10667;SDS011;5382;42.136;24.796;2023-07-28T07:21:44;8.77;;;3.60;;
10667;SDS011;5382;42.136;24.796;2023-07-28T07:24:12;5.18;;;3.20;;
10667;SDS011;5382;42.136;24.796;2023-07-28T07:26:39;5.50;;;3.35;;
10667;SDS011;5382;42.136;24.796;2023-07-28T07:29:08;5.68;;;3.60;;
10667;SDS011;5382;42.136;24.796;2023-07-28T07:31:35;5.18;;;3.10;;
10667;SDS011;5382;42.136;24.796;2023-07-28T07:34:02;7.85;;;3.38;;
10667;SDS011;5382;42.136;24.796;2023-07-28T07:36:29;5.00;;;3.58;;
10667;SDS011;5382;42.136;24.796;2023-07-28T07:38:56;6.88;;;3.13;;
10667;SDS011;5382;42.136;24.796;2023-07-28T07:41:23;6.50;;;2.95;;
10667;SDS011;5382;42.136;24.796;2023-07-28T07:43:52;3.72;;;2.90;;
10667;SDS011;5382;42.136;24.796;2023-07-28T07:46:22;7.70;;;3.35;;
10667;SDS011;5382;42.136;24.796;2023-07-28T07:48:49;4.68;;;2.80;;
10667;SDS011;5382;42.136;24.796;2023-07-28T07:51:16;6.60;;;3.17;;
10667;SDS011;5382;42.136;24.796;2023-07-28T07:53:43;10.95;;;3.47;;
10667;SDS011;5382;42.136;24.796;2023-07-28T07:56:10;6.53;;;2.80;;
10667;SDS011;5382;42.136;24.796;2023-07-28T07:58:37;8.18;;;2.88;;
10667;SDS011;5382;42.136;24.796;2023-07-28T08:01:04;4.28;;;2.95;;
10667;SDS011;5382;42.136;24.796;2023-07-28T08:03:32;3.75;;;2.80;;
10667;SDS011;5382;42.136;24.796;2023-07-28T08:06:01;4.57;;;2.80;;
10667;SDS011;5382;42.136;24.796;2023-07-28T08:08:28;7.35;;;2.40;;
10667;SDS011;5382;42.136;24.796;2023-07-28T08:10:55;21.00;;;3.13;;
10667;SDS011;5382;42.136;24.796;2023-07-28T08:13:22;14.02;;;3.38;;
10667;SDS011;5382;42.136;24.796;2023-07-28T08:15:49;9.88;;;3.33;;
10667;SDS011;5382;42.136;24.796;2023-07-28T08:18:16;5.07;;;2.53;;
10667;SDS011;5382;42.136;24.796;2023-07-28T08:20:44;6.57;;;2.65;;
10667;SDS011;5382;42.136;24.796;2023-07-28T08:23:11;7.35;;;2.83;;
10667;SDS011;5382;42.136;24.796;2023-07-28T08:25:37;6.30;;;2.83;;
10667;SDS011;5382;42.136;24.796;2023-07-28T08:28:04;3.08;;;2.30;;
10667;SDS011;5382;42.136;24.796;2023-07-28T08:30:31;3.95;;;2.60;;
10667;SDS011;5382;42.136;24.796;2023-07-28T08:32:58;5.70;;;2.78;;
10667;SDS011;5382;42.136;24.796;2023-07-28T08:35:25;3.85;;;2.40;;
10667;SDS011;5382;42.136;24.796;2023-07-28T08:37:53;5.15;;;2.50;;
10667;SDS011;5382;42.136;24.796;2023-07-28T08:40:20;3.05;;;2.45;;
10667;SDS011;5382;42.136;24.796;2023-07-28T08:42:47;4.47;;;2.42;;
10667;SDS011;5382;42.136;24.796;2023-07-28T08:45:14;7.40;;;2.30;;
10667;SDS011;5382;42.136;24.796;2023-07-28T08:47:41;8.63;;;2.10;;
10667;SDS011;5382;42.136;24.796;2023-07-28T08:50:09;3.70;;;1.90;;
10667;SDS011;5382;42.136;24.796;2023-07-28T08:52:36;8.13;;;1.98;;
10667;SDS011;5382;42.136;24.796;2023-07-28T08:55:05;6.80;;;2.10;;
10667;SDS011;5382;42.136;24.796;2023-07-28T08:57:32;3.47;;;2.15;;
10667;SDS011;5382;42.136;24.796;2023-07-28T09:00:06;4.38;;;2.05;;
10667;SDS011;5382;42.136;24.796;2023-07-28T09:02:34;2.28;;;1.85;;
10667;SDS011;5382;42.136;24.796;2023-07-28T09:05:02;4.63;;;2.05;;
10667;SDS011;5382;42.136;24.796;2023-07-28T09:07:33;2.95;;;1.98;;
10667;SDS011;5382;42.136;24.796;2023-07-28T09:10:00;6.28;;;1.80;;
10667;SDS011;5382;42.136;24.796;2023-07-28T09:12:29;4.75;;;1.85;;
10667;SDS011;5382;42.136;24.796;2023-07-28T09:14:57;7.18;;;2.15;;
10667;SDS011;5382;42.136;24.796;2023-07-28T09:17:24;3.92;;;2.13;;
10667;SDS011;5382;42.136;24.796;2023-07-28T09:19:51;7.90;;;2.13;;
10667;SDS011;5382;42.136;24.796;2023-07-28T09:22:19;3.90;;;1.80;;
10667;SDS011;5382;42.136;24.796;2023-07-28T09:24:46;4.07;;;1.65;;
10667;SDS011;5382;42.136;24.796;2023-07-28T09:27:19;4.93;;;1.80;;
10667;SDS011;5382;42.136;24.796;2023-07-28T09:29:48;4.25;;;2.03;;
10667;SDS011;5382;42.136;24.796;2023-07-28T09:32:16;2.10;;;1.75;;
10667;SDS011;5382;42.136;24.796;2023-07-28T09:35:05;3.60;;;1.90;;
10667;SDS011;5382;42.136;24.796;2023-07-28T09:37:34;5.75;;;2.05;;
10667;SDS011;5382;42.136;24.796;2023-07-28T09:40:04;3.10;;;1.63;;
10667;SDS011;5382;42.136;24.796;2023-07-28T09:42:36;3.45;;;1.67;;
10667;SDS011;5382;42.136;24.796;2023-07-28T09:45:06;1.92;;;1.48;;
10667;SDS011;5382;42.136;24.796;2023-07-28T09:47:34;2.38;;;1.48;;
10667;SDS011;5382;42.136;24.796;2023-07-28T09:50:03;3.55;;;1.40;;
10667;SDS011;5382;42.136;24.796;2023-07-28T09:52:32;2.05;;;1.40;;
10667;SDS011;5382;42.136;24.796;2023-07-28T09:55:03;3.08;;;1.40;;
10667;SDS011;5382;42.136;24.796;2023-07-28T09:57:33;2.13;;;1.23;;
10667;SDS011;5382;42.136;24.796;2023-07-28T10:00:08;2.65;;;1.60;;
10667;SDS011;5382;42.136;24.796;2023-07-28T10:02:37;2.72;;;1.40;;
10667;SDS011;5382;42.136;24.796;2023-07-28T10:05:04;1.23;;;1.13;;
10667;SDS011;5382;42.136;24.796;2023-07-28T10:07:32;3.63;;;1.52;;
10667;SDS011;5382;42.136;24.796;2023-07-28T10:10:01;2.05;;;1.48;;
10667;SDS011;5382;42.136;24.796;2023-07-28T10:12:33;5.95;;;1.65;;
10667;SDS011;5382;42.136;24.796;2023-07-28T10:15:11;4.05;;;1.45;;
10667;SDS011;5382;42.136;24.796;2023-07-28T10:17:41;3.60;;;1.50;;
10667;SDS011;5382;42.136;24.796;2023-07-28T10:23:06;2.45;;;1.48;;
10667;SDS011;5382;42.136;24.796;2023-07-28T10:25:37;2.40;;;1.50;;
10667;SDS011;5382;42.136;24.796;2023-07-28T10:28:05;3.42;;;1.50;;
10667;SDS011;5382;42.136;24.796;2023-07-28T10:30:36;3.60;;;1.38;;
10667;SDS011;5382;42.136;24.796;2023-07-28T10:33:05;3.15;;;1.42;;
10667;SDS011;5382;42.136;24.796;2023-07-28T10:35:32;1.55;;;1.45;;
10667;SDS011;5382;42.136;24.796;2023-07-28T10:43:48;4.68;;;1.50;;
10667;SDS011;5382;42.136;24.796;2023-07-28T10:46:17;2.42;;;1.40;;
10667;SDS011;5382;42.136;24.796;2023-07-28T10:48:45;1.42;;;1.33;;
10667;SDS011;5382;42.136;24.796;2023-07-28T10:51:19;1.60;;;1.45;;
10667;SDS011;5382;42.136;24.796;2023-07-28T10:53:49;1.67;;;1.33;;
10667;SDS011;5382;42.136;24.796;2023-07-28T10:56:16;2.85;;;1.67;;
10667;SDS011;5382;42.136;24.796;2023-07-28T10:58:45;2.05;;;1.33;;
10667;SDS011;5382;42.136;24.796;2023-07-28T11:01:12;1.42;;;1.33;;
10667;SDS011;5382;42.136;24.796;2023-07-28T11:03:42;2.33;;;1.88;;
10667;SDS011;5382;42.136;24.796;2023-07-28T11:06:09;1.73;;;1.38;;
10667;SDS011;5382;42.136;24.796;2023-07-28T11:08:37;2.75;;;1.50;;
10667;SDS011;5382;42.136;24.796;2023-07-28T11:11:04;1.85;;;1.40;;
10667;SDS011;5382;42.136;24.796;2023-07-28T11:13:32;1.40;;;1.30;;
10667;SDS011;5382;42.136;24.796;2023-07-28T11:16:00;3.72;;;1.75;;
10667;SDS011;5382;42.136;24.796;2023-07-28T11:18:27;1.55;;;1.33;;
10667;SDS011;5382;42.136;24.796;2023-07-28T11:20:55;2.60;;;1.70;;
10667;SDS011;5382;42.136;24.796;2023-07-28T11:23:22;1.70;;;1.40;;
10667;SDS011;5382;42.136;24.796;2023-07-28T11:25:49;1.70;;;1.33;;
10667;SDS011;5382;42.136;24.796;2023-07-28T11:28:16;2.13;;;1.55;;
10667;SDS011;5382;42.136;24.796;2023-07-28T11:30:45;1.50;;;1.40;;
10667;SDS011;5382;42.136;24.796;2023-07-28T11:33:12;2.83;;;1.77;;
10667;SDS011;5382;42.136;24.796;2023-07-28T11:35:40;1.73;;;1.60;;
10667;SDS011;5382;42.136;24.796;2023-07-28T11:38:12;1.23;;;1.08;;
10667;SDS011;5382;42.136;24.796;2023-07-28T11:40:41;4.82;;;1.23;;
10667;SDS011;5382;42.136;24.796;2023-07-28T11:43:08;1.63;;;1.50;;
10667;SDS011;5382;42.136;24.796;2023-07-28T11:45:35;3.75;;;1.52;;
10667;SDS011;5382;42.136;24.796;2023-07-28T11:48:02;1.65;;;1.45;;
10667;SDS011;5382;42.136;24.796;2023-07-28T11:50:34;2.55;;;1.40;;
10667;SDS011;5382;42.136;24.796;2023-07-28T11:53:03;1.70;;;1.52;;
10667;SDS011;5382;42.136;24.796;2023-07-28T11:55:32;4.55;;;1.67;;
10667;SDS011;5382;42.136;24.796;2023-07-28T11:57:59;4.25;;;1.95;;
10667;SDS011;5382;42.136;24.796;2023-07-28T12:00:29;1.55;;;1.27;;
10667;SDS011;5382;42.136;24.796;2023-07-28T12:03:06;1.83;;;1.40;;
10667;SDS011;5382;42.136;24.796;2023-07-28T12:05:35;2.45;;;1.30;;
10667;SDS011;5382;42.136;24.796;2023-07-28T12:08:04;1.60;;;1.50;;
10667;SDS011;5382;42.136;24.796;2023-07-28T12:10:34;2.33;;;1.27;;
10667;SDS011;5382;42.136;24.796;2023-07-28T12:13:04;2.67;;;1.83;;
10667;SDS011;5382;42.136;24.796;2023-07-28T12:15:31;2.33;;;1.40;;
10667;SDS011;5382;42.136;24.796;2023-07-28T12:18:01;1.60;;;1.48;;
10667;SDS011;5382;42.136;24.796;2023-07-28T12:20:32;1.48;;;1.38;;
10667;SDS011;5382;42.136;24.796;2023-07-28T12:22:59;1.77;;;1.40;;
10667;SDS011;5382;42.136;24.796;2023-07-28T12:25:26;2.33;;;1.20;;
10667;SDS011;5382;42.136;24.796;2023-07-28T12:27:56;2.50;;;2.13;;
10667;SDS011;5382;42.136;24.796;2023-07-28T12:30:23;3.10;;;1.40;;
10667;SDS011;5382;42.136;24.796;2023-07-28T12:32:50;3.35;;;1.40;;
10667;SDS011;5382;42.136;24.796;2023-07-28T12:35:17;2.45;;;1.90;;
10667;SDS011;5382;42.136;24.796;2023-07-28T12:37:43;2.67;;;1.42;;
10667;SDS011;5382;42.136;24.796;2023-07-28T12:40:11;2.58;;;1.40;;
10667;SDS011;5382;42.136;24.796;2023-07-28T12:42:38;6.03;;;2.03;;
10667;SDS011;5382;42.136;24.796;2023-07-28T12:45:07;4.68;;;1.70;;
10667;SDS011;5382;42.136;24.796;2023-07-28T12:47:36;6.63;;;1.77;;
10667;SDS011;5382;42.136;24.796;2023-07-28T12:50:03;4.22;;;1.60;;
10667;SDS011;5382;42.136;24.796;2023-07-28T12:52:32;4.47;;;1.73;;
10667;SDS011;5382;42.136;24.796;2023-07-28T12:54:58;7.72;;;1.90;;
10667;SDS011;5382;42.136;24.796;2023-07-28T12:57:25;2.92;;;1.42;;
10667;SDS011;5382;42.136;24.796;2023-07-28T12:59:52;2.40;;;1.58;;
10667;SDS011;5382;42.136;24.796;2023-07-28T13:02:20;1.80;;;1.10;;
10667;SDS011;5382;42.136;24.796;2023-07-28T13:04:47;4.35;;;1.48;;
10667;SDS011;5382;42.136;24.796;2023-07-28T13:07:14;4.32;;;1.50;;
10667;SDS011;5382;42.136;24.796;2023-07-28T13:09:40;2.85;;;1.60;;
10667;SDS011;5382;42.136;24.796;2023-07-28T13:12:08;1.70;;;1.48;;
10667;SDS011;5382;42.136;24.796;2023-07-28T13:14:35;2.15;;;1.48;;
10667;SDS011;5382;42.136;24.796;2023-07-28T13:17:01;3.83;;;1.80;;
10667;SDS011;5382;42.136;24.796;2023-07-28T13:19:30;6.38;;;2.13;;
10667;SDS011;5382;42.136;24.796;2023-07-28T13:21:57;3.85;;;1.65;;
10667;SDS011;5382;42.136;24.796;2023-07-28T13:24:24;3.63;;;1.83;;
10667;SDS011;5382;42.136;24.796;2023-07-28T13:26:50;4.25;;;1.50;;
10667;SDS011;5382;42.136;24.796;2023-07-28T13:29:17;3.88;;;1.60;;
10667;SDS011;5382;42.136;24.796;2023-07-28T13:31:44;3.88;;;1.75;;
10667;SDS011;5382;42.136;24.796;2023-07-28T13:34:11;2.83;;;1.58;;
10667;SDS011;5382;42.136;24.796;2023-07-28T13:36:39;1.95;;;1.63;;
10667;SDS011;5382;42.136;24.796;2023-07-28T13:39:08;4.05;;;1.33;;
10667;SDS011;5382;42.136;24.796;2023-07-28T13:41:35;1.92;;;1.33;;
10667;SDS011;5382;42.136;24.796;2023-07-28T13:44:02;1.95;;;1.50;;
10667;SDS011;5382;42.136;24.796;2023-07-28T13:46:29;1.40;;;1.30;;
10667;SDS011;5382;42.136;24.796;2023-07-28T13:48:55;2.60;;;1.70;;
10667;SDS011;5382;42.136;24.796;2023-07-28T13:51:22;7.85;;;3.17;;
10667;SDS011;5382;42.136;24.796;2023-07-28T13:53:50;3.25;;;1.52;;
10667;SDS011;5382;42.136;24.796;2023-07-28T13:56:17;1.90;;;1.40;;
10667;SDS011;5382;42.136;24.796;2023-07-28T13:58:44;2.05;;;1.50;;
10667;SDS011;5382;42.136;24.796;2023-07-28T14:01:11;3.13;;;1.48;;
10667;SDS011;5382;42.136;24.796;2023-07-28T14:03:38;1.65;;;1.55;;
10667;SDS011;5382;42.136;24.796;2023-07-28T14:06:04;2.95;;;1.70;;
10667;SDS011;5382;42.136;24.796;2023-07-28T14:08:31;3.80;;;1.48;;
10667;SDS011;5382;42.136;24.796;2023-07-28T14:10:59;2.50;;;1.58;;
10667;SDS011;5382;42.136;24.796;2023-07-28T14:13:26;2.53;;;1.30;;
10667;SDS011;5382;42.136;24.796;2023-07-28T14:15:53;2.00;;;1.30;;
10667;SDS011;5382;42.136;24.796;2023-07-28T14:18:20;4.32;;;1.50;;
10667;SDS011;5382;42.136;24.796;2023-07-28T14:20:47;3.22;;;1.70;;
10667;SDS011;5382;42.136;24.796;2023-07-28T14:23:20;3.45;;;1.52;;
10667;SDS011;5382;42.136;24.796;2023-07-28T14:25:48;1.48;;;1.38;;
10667;SDS011;5382;42.136;24.796;2023-07-28T14:28:16;2.45;;;1.30;;
10667;SDS011;5382;42.136;24.796;2023-07-28T14:30:44;10.52;;;2.05;;
10667;SDS011;5382;42.136;24.796;2023-07-28T14:33:11;3.22;;;1.40;;
10667;SDS011;5382;42.136;24.796;2023-07-28T14:35:39;7.68;;;1.80;;
10667;SDS011;5382;42.136;24.796;2023-07-28T14:38:06;6.72;;;2.22;;
10667;SDS011;5382;42.136;24.796;2023-07-28T14:40:33;4.72;;;1.58;;
10667;SDS011;5382;42.136;24.796;2023-07-28T14:43:00;7.78;;;2.00;;
10667;SDS011;5382;42.136;24.796;2023-07-28T14:45:28;4.10;;;1.70;;
10667;SDS011;5382;42.136;24.796;2023-07-28T14:47:55;4.63;;;1.90;;
10667;SDS011;5382;42.136;24.796;2023-07-28T14:50:21;3.30;;;1.67;;
10667;SDS011;5382;42.136;24.796;2023-07-28T14:52:48;9.63;;;2.13;;
10667;SDS011;5382;42.136;24.796;2023-07-28T14:55:15;6.63;;;2.08;;
10667;SDS011;5382;42.136;24.796;2023-07-28T14:57:42;4.20;;;1.50;;